Aérodrome :
LOGIN :

S'inscrire | Disclaimer

   EN    FR    IT 

 










Légende :    VFR   VFR Marginal   IFR   IFR Intensif   IFR Très Intensif
Visi : 
Plafond : 
>= 8 km
>= 3000ft
5 à 8 km
1000 à 3000 ft
1500m à 5 km
500 à 1000 ft
800 à 1500m
200 à 500 ft
< 800m
< 200 ft
Symboles :   Orages  Brouillard  Fortes neiges  Fortes précipitations  Vent > 20 kt
SIGMETs :   Divers  Orages  Givrage  Turbulence  Onde Orograph.  Cendres Volcan.







- Altitude de l'aérodrome : 1906 ft
- Code IATA : INN


LOWI - Innsbruck

DERNIER METAR :
  • 160020Z AUTO VRB01KT 9999 NSC 16/12 Q1022

METARs EXPIRÉS :
  • 152350Z AUTO VRB02KT 9999 NSC 15/12 Q1022
  • 152320Z AUTO 03003KT 010V070 9999 FEW060 16/13 Q1022
  • 152250Z AUTO 08002KT 9999 FEW050 17/13 Q1022
  • 152220Z AUTO 11003KT 080V140 9999 SCT050 17/13 Q1022
  • 152150Z AUTO VRB02KT 9999 FEW070 17/13 Q1022

TAF TAF LOWI
Valide du 16 à 00h jusqu'au 17 à 00h UTC


152315Z 1600/1624 VRB02KT CAVOK TX27/1614Z TN14/1604Z
TEMPO 1610/1616 09009KT 9999 SCT070
Pas de NOTAMs connus pour ce terrain.



MET'MAP, la Météo Aéronautique d'un coup d'oeil ! - Copyright ORBIFLY Décembre 2007 - Disclaimer

ORBIFLY MET'MAP TEAM :

Programmation & Développement : Alexandra Zaïnal
Conception & Développement : Baudouin d'Aumeries
Co-Programmation & Développement : Marc-Olivier Méhu
Soutien technique & logistique : Manuel Goepfert

Contact : metmap@orbifly.com




SOURCES & CREDITS :

   NOAA